Главная страница
METAR-TAF:

METAR-TAF

Аэропорты :

Элиста, Россия

широта: 46-22N, долгота: 044-20E, высота над уровнем моря: 150 м

Текущие метеонаблюдения

Эта сводка был подготовлена 16 минут назад, в 19:30 UTC
Ветер 14 Узел от юго-восточный
Температура 9°C
Влажность 100%
Давление 1014 hPa
Видимость: 0500 м

METAR: URWI 191930Z AUTO 14007MPS 0800 0500W // ///003/// 09/09 Q1014 RMK QBB090

Время: 22:46 (19:46 UTC)

Прогноз

Эта сводка был подготовлена 8 часа и 46 минут назад, в 11:00 UTC
Прогноз действительный с 19-го 12 UTC до 19-го 21 UTC
Ветер 14 Узел от восточно-юго-восточный с порывами до 25 Узел
Видимость: 0800 м
Сплошная облачность на высоте 200 фута
небольшой морось, туман
временами
С 19-го 12 UTC до 19-го 21 UTC
Видимость: 1200 м
Рассеянная облачность на высоте 400 фута
дымка

TAF: URWI 191100Z 1912/1921 12007G13MPS 0800 -DZ FG OVC002 TEMPO 1912/1921 1200 BR BKN004

Метеонаблюдения и прогнозы для более 4000 аэропортов (сводки METAR и TAF).

Имеющиеся станции представлены на карте желтыми и красными точками.

Чтобы увидеть название станции, наведите на нее мышь.

Затем щелкните, чтобы увидеть метеонаблюдения и метеопрогнозы.

Управление картой: чтобы увеличить масштаб, щелкните зеленые кнопки с черным крестиком; чтобы уменьшить масштаб, щелкните зеленую кнопку с тире; для просмотра соседних карт щелкайте зеленые стрелки.


METAR-TAF: